sensor_id;sensor_type;location;lat;lon;timestamp;temperature;humidity
18454;DHT22;9356;52.202;20.950;2023-07-20T00:00:38;19.90;65.40
18454;DHT22;9356;52.202;20.950;2023-07-20T00:01:42;20.50;65.80
18454;DHT22;9356;52.202;20.950;2023-07-20T00:02:51;20.50;65.70
18454;DHT22;9356;52.202;20.950;2023-07-20T00:03:55;20.50;65.30
18454;DHT22;9356;52.202;20.950;2023-07-20T00:04:59;20.50;65.50
18454;DHT22;9356;52.202;20.950;2023-07-20T00:06:03;21.20;65.70
18454;DHT22;9356;52.202;20.950;2023-07-20T00:07:08;20.50;65.60
18454;DHT22;9356;52.202;20.950;2023-07-20T00:08:15;20.50;66.50
18454;DHT22;9356;52.202;20.950;2023-07-20T00:09:20;20.50;65.90
18454;DHT22;9356;52.202;20.950;2023-07-20T00:10:24;20.50;66.30
18454;DHT22;9356;52.202;20.950;2023-07-20T00:11:28;20.50;66.50
18454;DHT22;9356;52.202;20.950;2023-07-20T00:12:33;20.50;66.70
18454;DHT22;9356;52.202;20.950;2023-07-20T00:13:40;20.60;66.50
18454;DHT22;9356;52.202;20.950;2023-07-20T00:14:45;20.50;66.20
18454;DHT22;9356;52.202;20.950;2023-07-20T00:15:51;20.50;66.30
18454;DHT22;9356;52.202;20.950;2023-07-20T00:17:04;20.50;66.20
18454;DHT22;9356;52.202;20.950;2023-07-20T00:18:08;20.60;66.30
18454;DHT22;9356;52.202;20.950;2023-07-20T00:19:13;20.60;66.10
18454;DHT22;9356;52.202;20.950;2023-07-20T00:20:27;20.60;66.00
18454;DHT22;9356;52.202;20.950;2023-07-20T00:21:32;20.60;66.10
18454;DHT22;9356;52.202;20.950;2023-07-20T00:22:36;20.60;66.60
18454;DHT22;9356;52.202;20.950;2023-07-20T00:23:40;20.60;66.80
18454;DHT22;9356;52.202;20.950;2023-07-20T00:24:45;20.60;66.50
18454;DHT22;9356;52.202;20.950;2023-07-20T00:25:57;20.60;66.40
18454;DHT22;9356;52.202;20.950;2023-07-20T00:27:00;20.60;65.70
18454;DHT22;9356;52.202;20.950;2023-07-20T00:28:05;20.60;65.90
18454;DHT22;9356;52.202;20.950;2023-07-20T00:29:08;20.70;66.00
18454;DHT22;9356;52.202;20.950;2023-07-20T00:30:16;21.50;66.60
18454;DHT22;9356;52.202;20.950;2023-07-20T00:31:21;20.70;66.20
18454;DHT22;9356;52.202;20.950;2023-07-20T00:32:25;20.70;66.00
18454;DHT22;9356;52.202;20.950;2023-07-20T00:33:32;20.70;66.20
18454;DHT22;9356;52.202;20.950;2023-07-20T00:34:36;20.70;66.50
18454;DHT22;9356;52.202;20.950;2023-07-20T00:35:44;20.70;66.10
18454;DHT22;9356;52.202;20.950;2023-07-20T00:36:51;20.70;66.00
18454;DHT22;9356;52.202;20.950;2023-07-20T00:37:57;20.70;66.00
18454;DHT22;9356;52.202;20.950;2023-07-20T00:39:03;20.70;66.20
18454;DHT22;9356;52.202;20.950;2023-07-20T00:40:09;20.70;66.00
18454;DHT22;9356;52.202;20.950;2023-07-20T00:41:15;20.70;66.90
18454;DHT22;9356;52.202;20.950;2023-07-20T00:42:23;20.90;66.30
18454;DHT22;9356;52.202;20.950;2023-07-20T00:43:27;21.00;66.10
18454;DHT22;9356;52.202;20.950;2023-07-20T00:44:32;20.60;66.20
18454;DHT22;9356;52.202;20.950;2023-07-20T00:45:39;20.60;66.30
18454;DHT22;9356;52.202;20.950;2023-07-20T00:46:47;20.60;66.60
18454;DHT22;9356;52.202;20.950;2023-07-20T00:47:51;20.70;66.20
18454;DHT22;9356;52.202;20.950;2023-07-20T00:49:02;20.70;66.10
18454;DHT22;9356;52.202;20.950;2023-07-20T00:50:07;20.60;66.50
18454;DHT22;9356;52.202;20.950;2023-07-20T00:51:13;20.70;66.50
18454;DHT22;9356;52.202;20.950;2023-07-20T00:52:20;20.60;66.30
18454;DHT22;9356;52.202;20.950;2023-07-20T00:53:27;20.60;66.60
18454;DHT22;9356;52.202;20.950;2023-07-20T00:54:32;20.70;66.70
18454;DHT22;9356;52.202;20.950;2023-07-20T00:55:40;20.60;66.50
18454;DHT22;9356;52.202;20.950;2023-07-20T00:56:44;20.60;66.90
18454;DHT22;9356;52.202;20.950;2023-07-20T00:57:49;20.60;66.90
18454;DHT22;9356;52.202;20.950;2023-07-20T00:58:54;20.60;66.50
18454;DHT22;9356;52.202;20.950;2023-07-20T01:00:02;20.60;66.00
18454;DHT22;9356;52.202;20.950;2023-07-20T01:01:07;20.60;66.50
18454;DHT22;9356;52.202;20.950;2023-07-20T01:02:13;20.60;66.80
18454;DHT22;9356;52.202;20.950;2023-07-20T01:03:16;20.70;66.20
18454;DHT22;9356;52.202;20.950;2023-07-20T01:04:21;20.70;66.10
18454;DHT22;9356;52.202;20.950;2023-07-20T01:05:35;20.70;66.10
18454;DHT22;9356;52.202;20.950;2023-07-20T01:06:50;20.70;66.00
18454;DHT22;9356;52.202;20.950;2023-07-20T01:08:01;21.00;66.60
18454;DHT22;9356;52.202;20.950;2023-07-20T01:09:13;20.60;65.90
18454;DHT22;9356;52.202;20.950;2023-07-20T01:10:25;20.70;66.50
18454;DHT22;9356;52.202;20.950;2023-07-20T01:11:42;20.70;66.60
18454;DHT22;9356;52.202;20.950;2023-07-20T01:12:48;20.60;65.90
18454;DHT22;9356;52.202;20.950;2023-07-20T01:13:56;20.70;66.00
18454;DHT22;9356;52.202;20.950;2023-07-20T01:15:00;20.70;65.70
18454;DHT22;9356;52.202;20.950;2023-07-20T01:16:08;20.70;66.00
18454;DHT22;9356;52.202;20.950;2023-07-20T01:17:14;20.70;66.30
18454;DHT22;9356;52.202;20.950;2023-07-20T01:18:20;20.70;66.20
18454;DHT22;9356;52.202;20.950;2023-07-20T01:19:24;20.60;66.50
18454;DHT22;9356;52.202;20.950;2023-07-20T01:20:32;20.70;67.00
18454;DHT22;9356;52.202;20.950;2023-07-20T01:21:42;20.60;66.50
18454;DHT22;9356;52.202;20.950;2023-07-20T01:23:21;20.60;66.70
18454;DHT22;9356;52.202;20.950;2023-07-20T01:24:56;20.60;66.70
18454;DHT22;9356;52.202;20.950;2023-07-20T01:26:19;20.60;66.80
18454;DHT22;9356;52.202;20.950;2023-07-20T01:27:56;20.60;66.70
18454;DHT22;9356;52.202;20.950;2023-07-20T01:29:24;20.40;66.60
18454;DHT22;9356;52.202;20.950;2023-07-20T01:30:52;20.50;66.90
18454;DHT22;9356;52.202;20.950;2023-07-20T01:32:04;20.50;67.00
18454;DHT22;9356;52.202;20.950;2023-07-20T01:33:14;20.50;67.30
18454;DHT22;9356;52.202;20.950;2023-07-20T01:34:24;20.50;67.30
18454;DHT22;9356;52.202;20.950;2023-07-20T01:35:30;20.50;67.10
18454;DHT22;9356;52.202;20.950;2023-07-20T01:36:36;20.50;67.50
18454;DHT22;9356;52.202;20.950;2023-07-20T01:37:44;20.50;67.50
18454;DHT22;9356;52.202;20.950;2023-07-20T01:38:52;20.50;67.50
18454;DHT22;9356;52.202;20.950;2023-07-20T01:40:00;20.50;67.70
18454;DHT22;9356;52.202;20.950;2023-07-20T01:41:07;20.40;67.30
18454;DHT22;9356;52.202;20.950;2023-07-20T01:42:13;20.40;67.80
18454;DHT22;9356;52.202;20.950;2023-07-20T01:43:19;20.40;67.80
18454;DHT22;9356;52.202;20.950;2023-07-20T01:44:22;20.40;67.80
18454;DHT22;9356;52.202;20.950;2023-07-20T01:45:28;20.40;68.20
18454;DHT22;9356;52.202;20.950;2023-07-20T01:46:32;20.40;67.80
18454;DHT22;9356;52.202;20.950;2023-07-20T01:47:38;20.30;68.10
18454;DHT22;9356;52.202;20.950;2023-07-20T01:48:41;20.30;68.60
18454;DHT22;9356;52.202;20.950;2023-07-20T01:49:53;20.30;68.20
18454;DHT22;9356;52.202;20.950;2023-07-20T01:50:57;20.30;69.00
18454;DHT22;9356;52.202;20.950;2023-07-20T01:52:00;20.30;68.30
18454;DHT22;9356;52.202;20.950;2023-07-20T01:53:08;20.30;68.30
18454;DHT22;9356;52.202;20.950;2023-07-20T01:54:12;20.30;68.10
18454;DHT22;9356;52.202;20.950;2023-07-20T01:55:17;20.30;68.70
18454;DHT22;9356;52.202;20.950;2023-07-20T01:56:21;20.30;68.40
18454;DHT22;9356;52.202;20.950;2023-07-20T01:57:27;20.30;68.30
18454;DHT22;9356;52.202;20.950;2023-07-20T01:58:31;20.30;68.90
18454;DHT22;9356;52.202;20.950;2023-07-20T01:59:36;20.20;68.50
18454;DHT22;9356;52.202;20.950;2023-07-20T02:00:43;20.30;68.60
18454;DHT22;9356;52.202;20.950;2023-07-20T02:01:48;20.20;68.60
18454;DHT22;9356;52.202;20.950;2023-07-20T02:02:55;20.20;68.80
18454;DHT22;9356;52.202;20.950;2023-07-20T02:03:59;21.00;69.20
18454;DHT22;9356;52.202;20.950;2023-07-20T02:05:05;20.20;69.40
18454;DHT22;9356;52.202;20.950;2023-07-20T02:06:08;20.20;69.20
18454;DHT22;9356;52.202;20.950;2023-07-20T02:07:13;20.20;68.80
18454;DHT22;9356;52.202;20.950;2023-07-20T02:08:16;20.20;68.80
18454;DHT22;9356;52.202;20.950;2023-07-20T02:09:21;20.20;68.70
18454;DHT22;9356;52.202;20.950;2023-07-20T02:10:25;20.20;69.10
18454;DHT22;9356;52.202;20.950;2023-07-20T02:11:30;20.20;69.30
18454;DHT22;9356;52.202;20.950;2023-07-20T02:12:34;20.20;69.30
18454;DHT22;9356;52.202;20.950;2023-07-20T02:13:40;20.20;69.30
18454;DHT22;9356;52.202;20.950;2023-07-20T02:14:43;20.20;69.60
18454;DHT22;9356;52.202;20.950;2023-07-20T02:15:48;19.80;69.60
18454;DHT22;9356;52.202;20.950;2023-07-20T02:16:59;20.20;69.60
18454;DHT22;9356;52.202;20.950;2023-07-20T02:18:06;20.20;69.70
18454;DHT22;9356;52.202;20.950;2023-07-20T02:19:09;20.20;69.80
18454;DHT22;9356;52.202;20.950;2023-07-20T02:20:16;20.20;70.00
18454;DHT22;9356;52.202;20.950;2023-07-20T02:21:20;20.20;70.00
18454;DHT22;9356;52.202;20.950;2023-07-20T02:22:24;20.20;70.00
18454;DHT22;9356;52.202;20.950;2023-07-20T02:23:29;20.20;69.90
18454;DHT22;9356;52.202;20.950;2023-07-20T02:24:36;20.10;69.90
18454;DHT22;9356;52.202;20.950;2023-07-20T02:25:40;20.20;69.90
18454;DHT22;9356;52.202;20.950;2023-07-20T02:26:45;20.20;70.20
18454;DHT22;9356;52.202;20.950;2023-07-20T02:27:48;20.00;70.20
18454;DHT22;9356;52.202;20.950;2023-07-20T02:28:53;20.10;70.30
18454;DHT22;9356;52.202;20.950;2023-07-20T02:29:58;20.10;70.30
18454;DHT22;9356;52.202;20.950;2023-07-20T02:31:08;20.20;71.20
18454;DHT22;9356;52.202;20.950;2023-07-20T02:32:12;20.20;70.20
18454;DHT22;9356;52.202;20.950;2023-07-20T02:33:20;20.20;70.20
18454;DHT22;9356;52.202;20.950;2023-07-20T02:34:24;20.10;70.90
18454;DHT22;9356;52.202;20.950;2023-07-20T02:35:28;20.20;70.70
18454;DHT22;9356;52.202;20.950;2023-07-20T02:36:34;20.10;70.20
18454;DHT22;9356;52.202;20.950;2023-07-20T02:37:41;20.20;70.40
18454;DHT22;9356;52.202;20.950;2023-07-20T02:38:47;20.20;70.60
18454;DHT22;9356;52.202;20.950;2023-07-20T02:39:54;20.10;69.90
18454;DHT22;9356;52.202;20.950;2023-07-20T02:41:07;20.10;70.20
18454;DHT22;9356;52.202;20.950;2023-07-20T02:42:10;20.00;70.70
18454;DHT22;9356;52.202;20.950;2023-07-20T02:43:17;20.00;70.40
18454;DHT22;9356;52.202;20.950;2023-07-20T02:44:21;20.10;70.90
18454;DHT22;9356;52.202;20.950;2023-07-20T02:45:26;20.10;71.60
18454;DHT22;9356;52.202;20.950;2023-07-20T02:46:30;20.10;71.40
18454;DHT22;9356;52.202;20.950;2023-07-20T02:47:36;20.10;71.40
18454;DHT22;9356;52.202;20.950;2023-07-20T02:48:44;20.10;71.10
18454;DHT22;9356;52.202;20.950;2023-07-20T02:49:48;20.00;71.30
18454;DHT22;9356;52.202;20.950;2023-07-20T02:50:54;20.10;71.40
18454;DHT22;9356;52.202;20.950;2023-07-20T02:51:59;20.00;71.60
18454;DHT22;9356;52.202;20.950;2023-07-20T02:53:03;20.10;72.30
18454;DHT22;9356;52.202;20.950;2023-07-20T02:54:10;20.10;71.50
18454;DHT22;9356;52.202;20.950;2023-07-20T02:55:14;20.10;71.50
18454;DHT22;9356;52.202;20.950;2023-07-20T02:56:19;20.10;71.70
18454;DHT22;9356;52.202;20.950;2023-07-20T02:57:23;20.10;71.90
18454;DHT22;9356;52.202;20.950;2023-07-20T02:58:27;19.80;71.70
18454;DHT22;9356;52.202;20.950;2023-07-20T02:59:31;20.10;71.90
18454;DHT22;9356;52.202;20.950;2023-07-20T03:00:38;20.10;71.90
18454;DHT22;9356;52.202;20.950;2023-07-20T03:01:47;20.10;72.00
18454;DHT22;9356;52.202;20.950;2023-07-20T03:02:51;20.10;72.30
18454;DHT22;9356;52.202;20.950;2023-07-20T03:04:01;20.10;72.00
18454;DHT22;9356;52.202;20.950;2023-07-20T03:05:16;20.10;71.90
18454;DHT22;9356;52.202;20.950;2023-07-20T03:06:23;20.10;72.50
18454;DHT22;9356;52.202;20.950;2023-07-20T03:07:28;19.50;71.50
18454;DHT22;9356;52.202;20.950;2023-07-20T03:08:36;20.10;71.90
18454;DHT22;9356;52.202;20.950;2023-07-20T03:09:40;20.10;71.60
18454;DHT22;9356;52.202;20.950;2023-07-20T03:11:16;20.10;71.80
18454;DHT22;9356;52.202;20.950;2023-07-20T03:12:20;19.80;72.20
18454;DHT22;9356;52.202;20.950;2023-07-20T03:13:27;20.00;72.90
18454;DHT22;9356;52.202;20.950;2023-07-20T03:14:33;20.10;72.60
18454;DHT22;9356;52.202;20.950;2023-07-20T03:15:39;20.10;72.90
18454;DHT22;9356;52.202;20.950;2023-07-20T03:16:43;20.10;72.50
18454;DHT22;9356;52.202;20.950;2023-07-20T03:17:48;20.10;72.50
18454;DHT22;9356;52.202;20.950;2023-07-20T03:18:51;20.10;73.20
18454;DHT22;9356;52.202;20.950;2023-07-20T03:19:59;20.00;72.40
18454;DHT22;9356;52.202;20.950;2023-07-20T03:21:05;20.00;72.80
18454;DHT22;9356;52.202;20.950;2023-07-20T03:22:10;20.00;72.80
18454;DHT22;9356;52.202;20.950;2023-07-20T03:23:15;20.00;72.80
18454;DHT22;9356;52.202;20.950;2023-07-20T03:24:19;20.00;72.80
18454;DHT22;9356;52.202;20.950;2023-07-20T03:25:24;20.00;72.90
18454;DHT22;9356;52.202;20.950;2023-07-20T03:26:35;20.00;72.70
18454;DHT22;9356;52.202;20.950;2023-07-20T03:27:41;20.00;72.80
18454;DHT22;9356;52.202;20.950;2023-07-20T03:28:48;20.00;72.80
18454;DHT22;9356;52.202;20.950;2023-07-20T03:29:51;20.40;73.20
18454;DHT22;9356;52.202;20.950;2023-07-20T03:30:56;20.00;73.20
18454;DHT22;9356;52.202;20.950;2023-07-20T03:32:08;20.00;73.30
18454;DHT22;9356;52.202;20.950;2023-07-20T03:33:15;20.10;73.20
18454;DHT22;9356;52.202;20.950;2023-07-20T03:34:19;20.00;73.10
18454;DHT22;9356;52.202;20.950;2023-07-20T03:35:25;20.00;73.20
18454;DHT22;9356;52.202;20.950;2023-07-20T03:36:32;20.00;73.40
18454;DHT22;9356;52.202;20.950;2023-07-20T03:37:37;20.00;73.70
18454;DHT22;9356;52.202;20.950;2023-07-20T03:38:43;20.00;73.70
18454;DHT22;9356;52.202;20.950;2023-07-20T03:39:48;20.00;74.00
18454;DHT22;9356;52.202;20.950;2023-07-20T03:40:53;20.00;73.90
18454;DHT22;9356;52.202;20.950;2023-07-20T03:41:58;20.00;74.20
18454;DHT22;9356;52.202;20.950;2023-07-20T03:43:01;20.00;74.30
18454;DHT22;9356;52.202;20.950;2023-07-20T03:44:11;20.00;74.60
18454;DHT22;9356;52.202;20.950;2023-07-20T03:45:15;19.90;75.00
18454;DHT22;9356;52.202;20.950;2023-07-20T03:46:21;19.90;75.20
18454;DHT22;9356;52.202;20.950;2023-07-20T03:47:26;19.90;75.50
18454;DHT22;9356;52.202;20.950;2023-07-20T03:48:48;20.30;75.90
18454;DHT22;9356;52.202;20.950;2023-07-20T03:49:55;19.90;75.80
18454;DHT22;9356;52.202;20.950;2023-07-20T03:51:01;19.90;75.80
18454;DHT22;9356;52.202;20.950;2023-07-20T03:52:07;19.90;76.10
18454;DHT22;9356;52.202;20.950;2023-07-20T03:53:12;19.90;76.00
18454;DHT22;9356;52.202;20.950;2023-07-20T03:54:18;19.90;76.10
18454;DHT22;9356;52.202;20.950;2023-07-20T03:55:23;19.40;76.00
18454;DHT22;9356;52.202;20.950;2023-07-20T03:56:32;19.80;76.10
18454;DHT22;9356;52.202;20.950;2023-07-20T03:57:42;19.80;76.40
18454;DHT22;9356;52.202;20.950;2023-07-20T03:58:47;20.80;77.50
18454;DHT22;9356;52.202;20.950;2023-07-20T03:59:51;19.80;76.70
18454;DHT22;9356;52.202;20.950;2023-07-20T04:00:59;19.80;77.00
18454;DHT22;9356;52.202;20.950;2023-07-20T04:02:03;19.70;77.50
18454;DHT22;9356;52.202;20.950;2023-07-20T04:03:08;19.70;77.80
18454;DHT22;9356;52.202;20.950;2023-07-20T04:04:13;19.60;78.10
18454;DHT22;9356;52.202;20.950;2023-07-20T04:05:18;19.60;78.40
18454;DHT22;9356;52.202;20.950;2023-07-20T04:06:23;19.60;78.70
18454;DHT22;9356;52.202;20.950;2023-07-20T04:07:27;19.60;79.30
18454;DHT22;9356;52.202;20.950;2023-07-20T04:08:32;19.60;79.80
18454;DHT22;9356;52.202;20.950;2023-07-20T04:09:45;19.60;79.60
18454;DHT22;9356;52.202;20.950;2023-07-20T04:10:55;19.50;80.00
18454;DHT22;9356;52.202;20.950;2023-07-20T04:11:59;19.50;80.20
18454;DHT22;9356;52.202;20.950;2023-07-20T04:13:07;19.40;80.30
18454;DHT22;9356;52.202;20.950;2023-07-20T04:14:11;19.40;80.60
18454;DHT22;9356;52.202;20.950;2023-07-20T04:15:16;19.40;80.90
18454;DHT22;9356;52.202;20.950;2023-07-20T04:16:22;19.30;81.40
18454;DHT22;9356;52.202;20.950;2023-07-20T04:17:28;19.30;82.20
18454;DHT22;9356;52.202;20.950;2023-07-20T04:18:39;19.30;82.30
18454;DHT22;9356;52.202;20.950;2023-07-20T04:19:44;19.30;82.70
18454;DHT22;9356;52.202;20.950;2023-07-20T04:20:48;19.20;83.20
18454;DHT22;9356;52.202;20.950;2023-07-20T04:21:53;19.20;83.80
18454;DHT22;9356;52.202;20.950;2023-07-20T04:22:59;19.20;84.30
18454;DHT22;9356;52.202;20.950;2023-07-20T04:24:05;19.20;84.80
18454;DHT22;9356;52.202;20.950;2023-07-20T04:25:09;19.20;85.40
18454;DHT22;9356;52.202;20.950;2023-07-20T04:26:15;19.20;86.00
18454;DHT22;9356;52.202;20.950;2023-07-20T04:27:19;19.10;86.90
18454;DHT22;9356;52.202;20.950;2023-07-20T04:28:24;19.20;87.40
18454;DHT22;9356;52.202;20.950;2023-07-20T04:29:28;19.10;87.80
18454;DHT22;9356;52.202;20.950;2023-07-20T04:30:33;19.10;88.80
18454;DHT22;9356;52.202;20.950;2023-07-20T04:31:41;19.10;89.30
18454;DHT22;9356;52.202;20.950;2023-07-20T04:32:47;18.70;89.70
18454;DHT22;9356;52.202;20.950;2023-07-20T04:33:52;19.10;90.20
18454;DHT22;9356;52.202;20.950;2023-07-20T04:35:00;19.10;90.50
18454;DHT22;9356;52.202;20.950;2023-07-20T04:36:08;19.10;90.90
18454;DHT22;9356;52.202;20.950;2023-07-20T04:37:13;19.10;91.40
18454;DHT22;9356;52.202;20.950;2023-07-20T04:38:19;19.10;91.50
18454;DHT22;9356;52.202;20.950;2023-07-20T04:39:36;19.10;91.70
18454;DHT22;9356;52.202;20.950;2023-07-20T04:40:45;19.10;92.00
18454;DHT22;9356;52.202;20.950;2023-07-20T04:41:49;19.10;92.10
18454;DHT22;9356;52.202;20.950;2023-07-20T04:42:53;19.10;92.20
18454;DHT22;9356;52.202;20.950;2023-07-20T04:44:00;19.10;92.50
18454;DHT22;9356;52.202;20.950;2023-07-20T04:45:07;19.10;92.80
18454;DHT22;9356;52.202;20.950;2023-07-20T04:46:12;19.10;93.10
18454;DHT22;9356;52.202;20.950;2023-07-20T04:47:17;19.10;93.20
18454;DHT22;9356;52.202;20.950;2023-07-20T04:48:24;19.10;93.60
18454;DHT22;9356;52.202;20.950;2023-07-20T04:49:39;19.10;93.90
18454;DHT22;9356;52.202;20.950;2023-07-20T04:51:08;19.10;94.30
18454;DHT22;9356;52.202;20.950;2023-07-20T04:52:19;19.10;94.60
18454;DHT22;9356;52.202;20.950;2023-07-20T04:53:40;19.10;94.80
18454;DHT22;9356;52.202;20.950;2023-07-20T04:54:44;19.10;94.70
18454;DHT22;9356;52.202;20.950;2023-07-20T04:55:51;19.10;95.00
18454;DHT22;9356;52.202;20.950;2023-07-20T04:56:57;19.10;95.20
18454;DHT22;9356;52.202;20.950;2023-07-20T04:58:05;19.00;95.40
18454;DHT22;9356;52.202;20.950;2023-07-20T04:59:10;19.10;95.70
18454;DHT22;9356;52.202;20.950;2023-07-20T05:00:17;19.00;95.90
18454;DHT22;9356;52.202;20.950;2023-07-20T05:01:23;19.10;96.00
18454;DHT22;9356;52.202;20.950;2023-07-20T05:02:29;19.10;96.30
18454;DHT22;9356;52.202;20.950;2023-07-20T05:03:36;19.10;96.30
18454;DHT22;9356;52.202;20.950;2023-07-20T05:04:42;19.10;96.50
18454;DHT22;9356;52.202;20.950;2023-07-20T05:05:47;19.20;96.70
18454;DHT22;9356;52.202;20.950;2023-07-20T05:07:00;19.20;96.90
18454;DHT22;9356;52.202;20.950;2023-07-20T05:08:09;20.80;97.40
18454;DHT22;9356;52.202;20.950;2023-07-20T05:09:16;19.20;97.10
18454;DHT22;9356;52.202;20.950;2023-07-20T05:10:20;19.30;97.20
18454;DHT22;9356;52.202;20.950;2023-07-20T05:11:24;19.30;97.20
18454;DHT22;9356;52.202;20.950;2023-07-20T05:12:28;19.20;96.70
18454;DHT22;9356;52.202;20.950;2023-07-20T05:13:35;19.20;96.90
18454;DHT22;9356;52.202;20.950;2023-07-20T05:14:40;19.20;97.00
18454;DHT22;9356;52.202;20.950;2023-07-20T05:15:45;19.30;97.00
18454;DHT22;9356;52.202;20.950;2023-07-20T05:16:52;19.30;97.00
18454;DHT22;9356;52.202;20.950;2023-07-20T05:18:00;19.30;97.00
18454;DHT22;9356;52.202;20.950;2023-07-20T05:19:04;19.30;97.20
18454;DHT22;9356;52.202;20.950;2023-07-20T05:20:10;19.30;97.10
18454;DHT22;9356;52.202;20.950;2023-07-20T05:21:16;19.40;97.20
18454;DHT22;9356;52.202;20.950;2023-07-20T05:22:20;19.40;97.40
18454;DHT22;9356;52.202;20.950;2023-07-20T05:23:29;19.40;97.40
18454;DHT22;9356;52.202;20.950;2023-07-20T05:24:35;19.40;97.40
18454;DHT22;9356;52.202;20.950;2023-07-20T05:25:57;19.50;97.50
18454;DHT22;9356;52.202;20.950;2023-07-20T05:27:02;19.70;97.20
18454;DHT22;9356;52.202;20.950;2023-07-20T05:28:08;19.90;96.80
18454;DHT22;9356;52.202;20.950;2023-07-20T05:29:16;20.00;96.50
18454;DHT22;9356;52.202;20.950;2023-07-20T05:30:21;20.20;96.20
18454;DHT22;9356;52.202;20.950;2023-07-20T05:31:27;20.40;95.90
18454;DHT22;9356;52.202;20.950;2023-07-20T05:32:33;20.50;95.50
18454;DHT22;9356;52.202;20.950;2023-07-20T05:33:37;20.60;95.00
18454;DHT22;9356;52.202;20.950;2023-07-20T05:34:45;20.80;94.80
18454;DHT22;9356;52.202;20.950;2023-07-20T05:35:48;20.90;94.30
18454;DHT22;9356;52.202;20.950;2023-07-20T05:36:56;21.00;93.90
18454;DHT22;9356;52.202;20.950;2023-07-20T05:37:59;21.00;93.60
18454;DHT22;9356;52.202;20.950;2023-07-20T05:39:05;21.30;93.10
18454;DHT22;9356;52.202;20.950;2023-07-20T05:40:09;21.40;92.90
18454;DHT22;9356;52.202;20.950;2023-07-20T05:41:17;21.40;92.40
18454;DHT22;9356;52.202;20.950;2023-07-20T05:42:20;21.50;92.20
18454;DHT22;9356;52.202;20.950;2023-07-20T05:43:29;21.60;92.00
18454;DHT22;9356;52.202;20.950;2023-07-20T05:44:34;21.60;91.70
18454;DHT22;9356;52.202;20.950;2023-07-20T05:45:44;21.70;91.60
18454;DHT22;9356;52.202;20.950;2023-07-20T05:46:49;21.70;91.40
18454;DHT22;9356;52.202;20.950;2023-07-20T05:47:59;21.60;91.50
18454;DHT22;9356;52.202;20.950;2023-07-20T05:49:03;21.80;91.40
18454;DHT22;9356;52.202;20.950;2023-07-20T05:50:10;21.80;91.20
18454;DHT22;9356;52.202;20.950;2023-07-20T05:51:13;21.80;91.20
18454;DHT22;9356;52.202;20.950;2023-07-20T05:52:19;21.90;91.20
18454;DHT22;9356;52.202;20.950;2023-07-20T05:53:22;22.40;91.10
18454;DHT22;9356;52.202;20.950;2023-07-20T05:54:31;21.90;90.60
18454;DHT22;9356;52.202;20.950;2023-07-20T05:55:36;21.90;90.20
18454;DHT22;9356;52.202;20.950;2023-07-20T05:56:43;21.90;90.30
18454;DHT22;9356;52.202;20.950;2023-07-20T05:57:47;21.40;90.20
18454;DHT22;9356;52.202;20.950;2023-07-20T05:58:52;22.00;90.30
18454;DHT22;9356;52.202;20.950;2023-07-20T05:59:57;22.10;90.20
18454;DHT22;9356;52.202;20.950;2023-07-20T06:01:13;22.10;90.10
18454;DHT22;9356;52.202;20.950;2023-07-20T06:02:17;22.10;89.90
18454;DHT22;9356;52.202;20.950;2023-07-20T06:03:22;22.10;89.90
18454;DHT22;9356;52.202;20.950;2023-07-20T06:04:27;22.20;89.70
18454;DHT22;9356;52.202;20.950;2023-07-20T06:05:31;22.20;89.70
18454;DHT22;9356;52.202;20.950;2023-07-20T06:06:35;22.30;89.30
18454;DHT22;9356;52.202;20.950;2023-07-20T06:07:43;22.20;89.20
18454;DHT22;9356;52.202;20.950;2023-07-20T06:08:47;22.20;89.10
18454;DHT22;9356;52.202;20.950;2023-07-20T06:09:53;22.30;89.00
18454;DHT22;9356;52.202;20.950;2023-07-20T06:11:01;22.30;88.70
18454;DHT22;9356;52.202;20.950;2023-07-20T06:12:08;22.30;88.70
18454;DHT22;9356;52.202;20.950;2023-07-20T06:13:12;22.40;89.10
18454;DHT22;9356;52.202;20.950;2023-07-20T06:14:17;22.40;88.50
18454;DHT22;9356;52.202;20.950;2023-07-20T06:15:25;22.40;88.20
18454;DHT22;9356;52.202;20.950;2023-07-20T06:16:31;22.40;88.20
18454;DHT22;9356;52.202;20.950;2023-07-20T06:17:37;22.30;88.20
18454;DHT22;9356;52.202;20.950;2023-07-20T06:18:43;22.30;88.30
18454;DHT22;9356;52.202;20.950;2023-07-20T06:19:48;22.30;88.00
18454;DHT22;9356;52.202;20.950;2023-07-20T06:20:52;22.30;88.10
18454;DHT22;9356;52.202;20.950;2023-07-20T06:21:57;22.30;87.90
18454;DHT22;9356;52.202;20.950;2023-07-20T06:23:01;22.20;88.20
18454;DHT22;9356;52.202;20.950;2023-07-20T06:24:06;22.20;88.50
18454;DHT22;9356;52.202;20.950;2023-07-20T06:25:11;22.20;88.50
18454;DHT22;9356;52.202;20.950;2023-07-20T06:26:15;22.20;88.10
18454;DHT22;9356;52.202;20.950;2023-07-20T06:27:19;22.20;88.20
18454;DHT22;9356;52.202;20.950;2023-07-20T06:28:23;22.20;87.60
18454;DHT22;9356;52.202;20.950;2023-07-20T06:29:27;22.20;88.80
18454;DHT22;9356;52.202;20.950;2023-07-20T06:30:34;22.20;88.20
18454;DHT22;9356;52.202;20.950;2023-07-20T06:31:42;22.20;88.10
18454;DHT22;9356;52.202;20.950;2023-07-20T06:32:48;22.90;88.20
18454;DHT22;9356;52.202;20.950;2023-07-20T06:33:53;22.30;88.00
18454;DHT22;9356;52.202;20.950;2023-07-20T06:35:01;22.30;87.70
18454;DHT22;9356;52.202;20.950;2023-07-20T06:36:06;22.30;87.40
18454;DHT22;9356;52.202;20.950;2023-07-20T06:37:12;22.20;87.50
18454;DHT22;9356;52.202;20.950;2023-07-20T06:38:16;22.20;87.50
18454;DHT22;9356;52.202;20.950;2023-07-20T06:39:26;22.20;87.70
18454;DHT22;9356;52.202;20.950;2023-07-20T06:40:33;22.20;87.90
18454;DHT22;9356;52.202;20.950;2023-07-20T06:41:39;22.20;87.50
18454;DHT22;9356;52.202;20.950;2023-07-20T06:42:52;22.20;87.50
18454;DHT22;9356;52.202;20.950;2023-07-20T06:44:00;22.20;87.10
18454;DHT22;9356;52.202;20.950;2023-07-20T06:45:08;22.20;87.70
18454;DHT22;9356;52.202;20.950;2023-07-20T06:46:13;22.20;87.60
18454;DHT22;9356;52.202;20.950;2023-07-20T06:47:17;22.10;87.60
18454;DHT22;9356;52.202;20.950;2023-07-20T06:48:21;22.20;87.30
18454;DHT22;9356;52.202;20.950;2023-07-20T06:49:25;22.20;87.70
18454;DHT22;9356;52.202;20.950;2023-07-20T06:50:39;22.20;87.10
18454;DHT22;9356;52.202;20.950;2023-07-20T06:51:45;22.20;87.10
18454;DHT22;9356;52.202;20.950;2023-07-20T06:52:49;22.20;87.30
18454;DHT22;9356;52.202;20.950;2023-07-20T06:53:53;22.20;87.30
18454;DHT22;9356;52.202;20.950;2023-07-20T06:55:05;22.20;87.20
18454;DHT22;9356;52.202;20.950;2023-07-20T06:56:09;22.20;87.10
18454;DHT22;9356;52.202;20.950;2023-07-20T06:57:14;22.20;87.30
18454;DHT22;9356;52.202;20.950;2023-07-20T06:58:21;22.20;87.30
18454;DHT22;9356;52.202;20.950;2023-07-20T06:59:25;22.20;87.30
18454;DHT22;9356;52.202;20.950;2023-07-20T07:00:30;22.20;87.30
18454;DHT22;9356;52.202;20.950;2023-07-20T07:01:35;22.20;87.50